Time;durP1;ratioP1;P1;durP2;ratioP2;P2;SDS_P1;SDS_P2;PMS_P1;PMS_P2;Temp;Humidity;BMP_temperature;BMP_pressure;BME280_temperature;BME280_humidity;BME280_pressure;Samples;Min_cycle;Max_cycle;Signal;HPM_P1;HPM_P2
2020/12/25 00:02:24;;;;;;;;;;;;;;;4.02;77.21;97384.05;1712243;83;26088;-88
2020/12/25 00:05:13;;;;;;;;;;;;;;;4.02;77.25;97384.05;1708579;82;24801;-88
2020/12/25 00:08:00;;;;;;;;;;;;;;;3.97;77.30;97386.09;1712072;83;20552;-88
2020/12/25 00:10:46;;;;;;;;;;;;;;;3.93;77.32;97382.00;1685284;83;24479;-88
2020/12/25 00:13:33;;;;;;;;;;;;;;;3.90;77.36;97392.55;1706785;83;22184;-89
2020/12/25 00:16:20;;;;;;;;;;;;;;;3.92;77.36;97397.19;1688725;83;25949;-89
2020/12/25 00:19:11;;;;;;;;;;;;;;;3.91;77.40;97398.56;1712495;82;24593;-88
2020/12/25 00:21:58;;;;;;;;;;;;;;;3.93;77.43;97400.12;1707875;83;20312;-89
2020/12/25 00:24:45;;;;;;;;;;;;;;;3.94;77.44;97404.83;1685715;83;24657;-88
2020/12/25 00:27:34;;;;;;;;;;;;;;;3.93;77.47;97410.47;1709130;83;23203;-89
2020/12/25 00:30:20;;;;;;;;;;;;;;;3.94;77.49;97412.59;1710462;83;26925;-88
2020/12/25 00:33:11;;;;;;;;;;;;;;;3.93;77.53;97413.55;1707825;83;24651;-89
2020/12/25 00:35:59;;;;;;;;;;;;;;;3.92;77.55;97415.76;1709268;83;20291;-89
2020/12/25 00:38:45;;;;;;;;;;;;;;;3.93;77.59;97416.14;1686900;83;25653;-88
2020/12/25 00:41:39;;;;;;;;;;;;;;;3.96;77.60;97417.23;1707292;83;22156;-88
2020/12/25 00:44:25;;;;;;;;;;;;;;;3.99;77.63;97420.92;1686962;83;25885;-88
2020/12/25 00:47:12;;;;;;;;;;;;;;;4.03;77.66;97425.02;1706532;82;24610;-89
2020/12/25 00:50:00;;;;;;;;;;;;;;;4.02;77.69;97431.94;1680635;83;20317;-88
2020/12/25 00:52:47;;;;;;;;;;;;;;;4.02;77.72;97438.42;1707915;83;24974;-89
2020/12/25 00:55:33;;;;;;;;;;;;;;;4.05;77.74;97442.56;1704083;82;22252;-90
2020/12/25 00:58:29;;;;;;;;;;;;;;;4.08;77.74;97441.10;1682585;83;26146;-90
2020/12/25 01:01:15;;;;;;;;;;;;;;;4.03;77.79;97440.09;1771629;80;24623;-90
2020/12/25 01:04:02;;;;;;;;;;;;;;;4.01;77.80;97438.04;1774285;80;20565;-89
2020/12/25 01:06:55;;;;;;;;;;;;;;;4.00;77.81;97445.89;1785454;79;24921;-89
2020/12/25 01:09:42;;;;;;;;;;;;;;;3.96;77.84;97443.12;1703568;82;22145;-90
2020/12/25 01:12:33;;;;;;;;;;;;;;;3.90;77.85;97443.48;1734331;80;26095;-89
2020/12/25 01:15:23;;;;;;;;;;;;;;;3.83;77.86;97455.94;1724858;81;24418;-89
2020/12/25 01:18:10;;;;;;;;;;;;;;;3.81;77.84;97451.79;1759860;78;20477;-89
2020/12/25 01:20:58;;;;;;;;;;;;;;;3.79;77.85;97457.88;1753700;80;25436;-89
2020/12/25 01:23:45;;;;;;;;;;;;;;;3.83;77.87;97461.57;1700276;82;22327;-88
2020/12/25 01:26:33;;;;;;;;;;;;;;;3.85;77.93;97466.20;1724598;80;26982;-88
2020/12/25 01:29:20;;;;;;;;;;;;;;;3.84;77.95;97471.84;1717853;82;24576;-88
2020/12/25 01:32:07;;;;;;;;;;;;;;;3.84;77.97;97474.89;1700761;82;20446;-89
2020/12/25 01:34:53;;;;;;;;;;;;;;;3.84;77.99;97478.77;1696746;82;24983;-88
2020/12/25 01:37:41;;;;;;;;;;;;;;;3.84;78.03;97473.59;1740919;81;21828;-87
2020/12/25 01:40:31;;;;;;;;;;;;;;;3.85;78.07;97473.97;1699587;82;27010;-88
2020/12/25 01:43:18;;;;;;;;;;;;;;;3.83;78.11;97470.63;1705147;82;24828;-88
2020/12/25 01:46:05;;;;;;;;;;;;;;;3.79;78.13;97473.41;1702903;82;20623;-89
2020/12/25 01:48:40;;;;;;;;;;;;;;;3.81;78.16;97463.44;1694792;82;24865;-88
2020/12/25 01:51:15;;;;;;;;;;;;;;;3.79;78.19;97470.82;1716620;82;22106;-89
2020/12/25 01:54:05;;;;;;;;;;;;;;;3.78;78.23;97471.73;1688966;83;26869;-89
2020/12/25 01:56:51;;;;;;;;;;;;;;;3.78;78.26;97470.44;1709392;82;24706;-89
2020/12/25 01:59:38;;;;;;;;;;;;;;;3.82;78.31;97467.69;1729892;80;20282;-89
2020/12/25 02:02:25;;;;;;;;;;;;;;;3.85;78.36;97464.91;1716548;81;25002;-90
2020/12/25 02:05:17;;;;;;;;;;;;;;;3.87;78.39;97465.20;1695396;82;22020;-90
2020/12/25 02:08:07;;;;;;;;;;;;;;;3.92;78.42;97467.52;1721656;82;26136;-89
2020/12/25 02:10:54;;;;;;;;;;;;;;;3.97;78.48;97474.09;1698588;82;24628;-89
2020/12/25 02:13:45;;;;;;;;;;;;;;;3.98;78.50;97472.34;1695136;82;20321;-90
2020/12/25 02:16:34;;;;;;;;;;;;;;;4.00;78.52;97470.48;1698246;82;24877;-89
2020/12/25 02:19:21;;;;;;;;;;;;;;;3.99;78.57;97472.69;1707733;82;22049;-90
2020/12/25 02:22:08;;;;;;;;;;;;;;;3.99;78.60;97466.22;1715428;82;26231;-90
2020/12/25 02:24:55;;;;;;;;;;;;;;;3.97;78.63;97464.20;1745176;81;25394;-90
2020/12/25 02:27:41;;;;;;;;;;;;;;;3.97;78.65;97473.26;1707579;82;20298;-89
2020/12/25 02:30:27;;;;;;;;;;;;;;;3.98;78.68;97474.93;1690180;82;24912;-89
2020/12/25 02:33:18;;;;;;;;;;;;;;;3.95;78.70;97475.93;1709554;82;22134;-89
2020/12/25 02:36:05;;;;;;;;;;;;;;;3.91;78.71;97478.34;1694720;82;26135;-90
2020/12/25 02:38:53;;;;;;;;;;;;;;;3.86;78.76;97479.06;1701325;82;24599;-89
2020/12/25 02:41:40;;;;;;;;;;;;;;;3.87;78.75;97477.31;1695198;82;20514;-89
2020/12/25 02:44:28;;;;;;;;;;;;;;;3.85;78.78;97472.67;1703725;82;25216;-90
2020/12/25 02:47:14;;;;;;;;;;;;;;;3.84;78.79;97478.77;1709311;82;21651;-89
2020/12/25 02:50:07;;;;;;;;;;;;;;;3.84;78.82;97478.77;1725360;80;27020;-88
2020/12/25 02:52:54;;;;;;;;;;;;;;;3.84;78.83;97486.53;1737394;80;25541;-88
2020/12/25 02:55:28;;;;;;;;;;;;;;;3.88;78.86;97488.84;1746279;80;20255;-88
2020/12/25 02:58:15;;;;;;;;;;;;;;;3.90;78.89;97490.90;1694024;82;25140;-88
2020/12/25 03:01:01;;;;;;;;;;;;;;;3.93;78.92;97489.91;1727477;81;22213;-88
2020/12/25 03:03:36;;;;;;;;;;;;;;;3.91;78.97;97491.28;1757017;80;26166;-88
2020/12/25 03:06:24;;;;;;;;;;;;;;;3.88;78.98;97494.48;1759372;81;24774;-88
2020/12/25 03:09:10;;;;;;;;;;;;;;;3.89;79.01;97500.87;1757288;81;20264;-88
2020/12/25 03:11:58;;;;;;;;;;;;;;;3.90;79.03;97503.00;1757823;81;24864;-88
2020/12/25 03:14:44;;;;;;;;;;;;;;;3.85;79.08;97494.67;1761014;80;21947;-88
2020/12/25 03:17:32;;;;;;;;;;;;;;;3.80;79.08;97500.13;1758265;81;26196;-88
2020/12/25 03:20:17;;;;;;;;;;;;;;;3.76;79.09;97501.23;1754684;81;24703;-89
2020/12/25 03:23:04;;;;;;;;;;;;;;;3.75;79.10;97504.27;1754290;81;20221;-88
2020/12/25 03:25:50;;;;;;;;;;;;;;;3.75;79.11;97508.16;1756127;80;24921;-88
2020/12/25 03:28:38;;;;;;;;;;;;;;;3.77;79.14;97509.33;1755944;80;22980;-88
2020/12/25 03:31:26;;;;;;;;;;;;;;;3.77;79.17;97511.47;1755682;81;27083;-89
2020/12/25 03:34:23;;;;;;;;;;;;;;;3.77;79.19;97508.04;1755365;81;24630;-88
2020/12/25 03:37:09;;;;;;;;;;;;;;;3.76;79.22;97513.67;1753692;81;20264;-88
2020/12/25 03:40:01;;;;;;;;;;;;;;;3.70;79.24;97499.83;1759724;80;24960;-89
2020/12/25 03:42:48;;;;;;;;;;;;;;;3.77;79.29;97511.92;1741282;81;22132;-88
2020/12/25 03:45:39;;;;;;;;;;;;;;;3.86;79.31;97511.41;1756324;81;26342;-88
2020/12/25 03:48:25;;;;;;;;;;;;;;;3.81;79.34;97499.66;1741050;81;24662;-88
2020/12/25 03:51:12;;;;;;;;;;;;;;;3.86;79.38;97518.34;1756599;81;20624;-88
2020/12/25 03:53:59;;;;;;;;;;;;;;;3.83;79.42;97522.38;1758083;81;24902;-88
2020/12/25 03:56:47;;;;;;;;;;;;;;;3.82;79.42;97515.56;1772803;80;23030;-88
2020/12/25 03:59:35;;;;;;;;;;;;;;;3.81;79.44;97518.61;1770259;79;26937;-88
2020/12/25 04:02:22;;;;;;;;;;;;;;;3.84;79.46;97521.47;1779105;80;25530;-88
2020/12/25 04:05:10;;;;;;;;;;;;;;;3.91;79.49;97524.09;1741450;82;20552;-88
2020/12/25 04:07:56;;;;;;;;;;;;;;;3.95;79.50;97524.27;1741145;80;24862;-88
2020/12/25 04:10:46;;;;;;;;;;;;;;;4.03;79.54;97526.80;1756143;81;22383;-89
2020/12/25 04:13:32;;;;;;;;;;;;;;;4.03;79.55;97523.38;1753900;81;26111;-89
2020/12/25 04:16:21;;;;;;;;;;;;;;;4.10;79.58;97524.67;1754882;81;24798;-89
2020/12/25 04:19:11;;;;;;;;;;;;;;;4.10;79.61;97524.67;1755722;81;20276;-89
2020/12/25 04:21:57;;;;;;;;;;;;;;;4.09;79.63;97521.24;1743462;81;24766;-89
2020/12/25 04:24:45;;;;;;;;;;;;;;;4.05;79.64;97519.77;1757260;81;22116;-88
2020/12/25 04:27:31;;;;;;;;;;;;;;;4.07;79.65;97524.41;1750009;80;26308;-89
2020/12/25 04:30:18;;;;;;;;;;;;;;;4.10;79.66;97531.14;1755753;81;24621;-88
2020/12/25 04:33:05;;;;;;;;;;;;;;;4.07;79.66;97527.45;1758240;81;20276;-89
2020/12/25 04:35:55;;;;;;;;;;;;;;;4.05;79.66;97534.00;1725399;81;24526;-89
2020/12/25 04:38:41;;;;;;;;;;;;;;;4.09;79.67;97537.27;1757582;81;22972;-89
2020/12/25 04:41:29;;;;;;;;;;;;;;;4.09;79.67;97535.97;1755233;81;27106;-89
2020/12/25 04:44:16;;;;;;;;;;;;;;;4.04;79.66;97544.44;1755003;81;24927;-88
2020/12/25 04:47:03;;;;;;;;;;;;;;;4.03;79.66;97542.80;1757992;81;20518;-88
2020/12/25 04:49:50;;;;;;;;;;;;;;;4.01;79.66;97544.63;1757423;80;24925;-88
2020/12/25 04:52:37;;;;;;;;;;;;;;;4.01;79.67;97547.22;1757575;81;22445;-88
2020/12/25 04:55:23;;;;;;;;;;;;;;;3.98;79.67;97559.05;1758771;81;26168;-89
2020/12/25 04:58:10;;;;;;;;;;;;;;;4.01;79.64;97558.41;1755233;81;24620;-88
2020/12/25 05:01:00;;;;;;;;;;;;;;;4.09;79.65;97565.26;1715690;81;20686;-88
2020/12/25 05:03:47;;;;;;;;;;;;;;;4.10;79.65;97563.05;1737572;80;24941;-88
2020/12/25 05:06:34;;;;;;;;;;;;;;;4.17;79.64;97567.41;1721752;82;22229;-88
2020/12/25 05:09:20;;;;;;;;;;;;;;;4.22;79.66;97571.86;1723345;81;26116;-88
2020/12/25 05:12:07;;;;;;;;;;;;;;;4.26;79.66;97574.64;1719613;82;24859;-88
2020/12/25 05:14:54;;;;;;;;;;;;;;;4.39;79.66;97576.06;1717215;82;20452;-88
2020/12/25 05:17:42;;;;;;;;;;;;;;;4.46;79.68;97586.44;1706603;81;25078;-87
2020/12/25 05:20:30;;;;;;;;;;;;;;;4.46;79.70;97583.39;1720709;81;22387;-87
2020/12/25 05:23:17;;;;;;;;;;;;;;;4.45;79.71;97584.31;1697159;82;25932;-89
2020/12/25 05:26:03;;;;;;;;;;;;;;;4.47;79.69;97588.92;1721654;81;24358;-88
2020/12/25 05:28:51;;;;;;;;;;;;;;;4.47;79.68;97597.19;1713143;82;20274;-89
2020/12/25 05:31:40;;;;;;;;;;;;;;;4.52;79.65;97599.87;1720290;81;24942;-88
2020/12/25 05:34:27;;;;;;;;;;;;;;;4.54;79.65;97600.59;1720347;82;22366;-88
2020/12/25 05:37:15;;;;;;;;;;;;;;;4.57;79.62;97604.32;1717394;81;26083;-89
2020/12/25 05:40:02;;;;;;;;;;;;;;;4.63;79.60;97602.66;1713623;82;24628;-89
2020/12/25 05:42:48;;;;;;;;;;;;;;;4.66;79.58;97609.87;1714950;81;20483;-89
2020/12/25 05:45:34;;;;;;;;;;;;;;;4.68;79.56;97609.33;1719330;82;25805;-89
2020/12/25 05:48:24;;;;;;;;;;;;;;;4.69;79.56;97608.41;1725500;81;22254;-88
2020/12/25 05:51:10;;;;;;;;;;;;;;;4.72;79.54;97609.51;1721858;81;27130;-89
2020/12/25 05:53:57;;;;;;;;;;;;;;;4.71;79.54;97612.56;1718717;82;24749;-88
2020/12/25 05:56:44;;;;;;;;;;;;;;;4.69;79.51;97613.09;1721255;81;20301;-88
2020/12/25 05:59:30;;;;;;;;;;;;;;;4.72;79.48;97614.23;1722369;82;24967;-88
2020/12/25 06:02:17;;;;;;;;;;;;;;;4.78;79.44;97616.92;1752912;79;22250;-88
2020/12/25 06:05:05;;;;;;;;;;;;;;;4.73;79.44;97617.20;1758983;79;26969;-88
2020/12/25 06:07:52;;;;;;;;;;;;;;;4.69;79.39;97614.89;1759172;80;24734;-87
2020/12/25 06:10:39;;;;;;;;;;;;;;;4.72;79.37;97625.06;1760865;81;20327;-88
2020/12/25 06:13:25;;;;;;;;;;;;;;;4.75;79.35;97630.87;1771891;79;24887;-88
2020/12/25 06:16:13;;;;;;;;;;;;;;;4.77;79.30;97630.80;1762028;79;22937;-88
2020/12/25 06:18:47;;;;;;;;;;;;;;;4.81;79.28;97635.70;1759656;80;26099;-88
2020/12/25 06:21:34;;;;;;;;;;;;;;;4.89;79.26;97641.74;1729032;81;24222;-88
2020/12/25 06:24:20;;;;;;;;;;;;;;;4.90;79.23;97645.55;1765633;79;20257;-86
2020/12/25 06:27:10;;;;;;;;;;;;;;;4.87;79.22;97649.59;1754848;81;24913;-88
2020/12/25 06:29:56;;;;;;;;;;;;;;;4.86;79.19;97653.11;1765378;79;22234;-89
2020/12/25 06:32:46;;;;;;;;;;;;;;;4.87;79.15;97657.38;1758899;81;26217;-88
2020/12/25 06:35:33;;;;;;;;;;;;;;;4.86;79.12;97656.16;1763551;81;24828;-88
2020/12/25 06:38:23;;;;;;;;;;;;;;;4.87;79.08;97660.42;1765304;81;20291;-89
2020/12/25 06:41:09;;;;;;;;;;;;;;;4.91;79.06;97665.83;1766099;79;25076;-88
2020/12/25 06:43:56;;;;;;;;;;;;;;;4.88;79.05;97664.70;1759426;80;22310;-88
2020/12/25 06:46:43;;;;;;;;;;;;;;;4.86;79.04;97673.02;1739106;81;26058;-88
2020/12/25 06:49:32;;;;;;;;;;;;;;;4.90;79.03;97672.77;1764725;79;25442;-89
2020/12/25 06:52:18;;;;;;;;;;;;;;;4.93;79.01;97679.05;1757375;81;20585;-88
2020/12/25 06:55:04;;;;;;;;;;;;;;;4.99;78.96;97681.28;1757987;80;24920;-88
2020/12/25 06:57:51;;;;;;;;;;;;;;;5.04;78.96;97681.00;1762129;81;23074;-88
2020/12/25 07:00:37;;;;;;;;;;;;;;;5.05;78.92;97686.11;1759351;81;26332;-88
2020/12/25 07:03:24;;;;;;;;;;;;;;;5.07;78.93;97682.59;1755920;81;24982;-88
2020/12/25 07:06:11;;;;;;;;;;;;;;;5.09;78.90;97691.94;1743568;80;20278;-87
2020/12/25 07:08:58;;;;;;;;;;;;;;;5.12;78.88;97690.48;1765465;81;24911;-88
2020/12/25 07:11:44;;;;;;;;;;;;;;;5.16;78.87;97697.14;1765042;81;22284;-87
2020/12/25 07:14:31;;;;;;;;;;;;;;;5.10;78.86;97702.69;1766175;79;26121;-88
2020/12/25 07:17:17;;;;;;;;;;;;;;;5.13;78.85;97697.80;1759752;80;24586;-88
2020/12/25 07:20:05;;;;;;;;;;;;;;;5.14;78.84;97704.63;1755476;81;20270;-88
2020/12/25 07:22:52;;;;;;;;;;;;;;;5.12;78.82;97710.38;1764284;81;24900;-88
2020/12/25 07:25:39;;;;;;;;;;;;;;;5.15;78.79;97707.59;1763923;79;22344;-88
2020/12/25 07:28:25;;;;;;;;;;;;;;;5.16;78.79;97710.11;1738767;79;26203;-90
2020/12/25 07:31:12;;;;;;;;;;;;;;;5.14;78.77;97703.33;1742357;80;24235;-89
2020/12/25 07:34:06;;;;;;;;;;;;;;;5.08;78.75;97701.94;1767246;79;20277;-90
2020/12/25 07:36:52;;;;;;;;;;;;;;;5.16;78.74;97714.45;1767265;79;25724;-89
2020/12/25 07:39:39;;;;;;;;;;;;;;;5.23;78.71;97720.50;1765829;79;22171;-88
2020/12/25 07:42:26;;;;;;;;;;;;;;;5.23;78.68;97726.14;1767166;79;26134;-89
2020/12/25 07:45:12;;;;;;;;;;;;;;;5.25;78.67;97722.97;1762407;79;24581;-88
2020/12/25 07:47:59;;;;;;;;;;;;;;;5.26;78.66;97726.78;1738200;81;20272;-89
2020/12/25 07:50:45;;;;;;;;;;;;;;;5.25;78.63;97723.81;1738761;81;24054;-90
2020/12/25 07:53:33;;;;;;;;;;;;;;;5.27;78.63;97725.86;1766541;79;21533;-89
2020/12/25 07:56:20;;;;;;;;;;;;;;;5.26;78.62;97728.54;1763266;79;26076;-90
2020/12/25 07:59:06;;;;;;;;;;;;;;;5.24;78.60;97732.52;1766099;79;24832;-90
2020/12/25 08:01:53;;;;;;;;;;;;;;;5.25;78.60;97734.64;1739411;81;20484;-90
2020/12/25 08:04:40;;;;;;;;;;;;;;;5.26;78.58;97737.62;1741644;82;24953;-89
2020/12/25 08:07:27;;;;;;;;;;;;;;;5.20;78.57;97737.52;1739043;82;22133;-89
2020/12/25 08:10:16;;;;;;;;;;;;;;;5.24;78.52;97746.78;1747020;81;26094;-89
2020/12/25 08:13:03;;;;;;;;;;;;;;;5.27;78.50;97745.78;1742865;82;24794;-90
2020/12/25 08:15:50;;;;;;;;;;;;;;;5.26;78.49;97750.59;1745482;82;20408;-90
2020/12/25 08:18:36;;;;;;;;;;;;;;;5.23;78.47;97746.89;1746436;80;25684;-90
2020/12/25 08:21:23;;;;;;;;;;;;;;;5.28;78.41;97746.99;1746536;80;21777;-90
2020/12/25 08:24:10;;;;;;;;;;;;;;;5.30;78.43;97749.02;1740482;81;26182;-91
2020/12/25 08:27:00;;;;;;;;;;;;;;;5.25;78.41;97752.34;1747503;82;24690;-90
2020/12/25 08:29:47;;;;;;;;;;;;;;;5.25;78.41;97754.10;1745501;80;20282;-90
2020/12/25 08:32:34;;;;;;;;;;;;;;;5.28;78.35;97753.94;1745160;81;25784;-89
2020/12/25 08:35:21;;;;;;;;;;;;;;;5.33;78.33;97762.28;1742050;80;22115;-89
2020/12/25 08:38:08;;;;;;;;;;;;;;;5.35;78.31;97767.73;1731087;82;26146;-89
2020/12/25 08:40:57;;;;;;;;;;;;;;;5.42;78.31;97772.09;1745318;80;24899;-90
2020/12/25 08:43:44;;;;;;;;;;;;;;;5.45;78.29;97777.93;1744265;80;20368;-89
2020/12/25 08:46:32;;;;;;;;;;;;;;;5.46;78.28;97780.90;1743614;80;24928;-91
2020/12/25 08:49:18;;;;;;;;;;;;;;;5.44;78.26;97787.12;1742492;82;22085;-90
2020/12/25 08:51:54;;;;;;;;;;;;;;;5.42;78.26;97785.91;1746903;80;26106;-89
2020/12/25 08:54:40;;;;;;;;;;;;;;;5.44;78.24;97787.96;1744983;82;24628;-89
2020/12/25 08:57:28;;;;;;;;;;;;;;;5.45;78.22;97795.28;1747383;82;20263;-89
2020/12/25 09:00:18;;;;;;;;;;;;;;;5.37;78.21;97789.24;1745026;82;20180;-89
2020/12/25 09:03:05;;;;;;;;;;;;;;;5.30;78.17;97789.68;1759419;79;22384;-90
2020/12/25 09:05:53;;;;;;;;;;;;;;;5.33;78.14;97785.63;1770870;80;27014;-89
2020/12/25 09:08:40;;;;;;;;;;;;;;;5.33;78.12;97791.66;1768710;81;24657;-90
2020/12/25 09:11:27;;;;;;;;;;;;;;;5.41;78.10;97788.13;1769273;79;20268;-88
2020/12/25 09:14:12;;;;;;;;;;;;;;;5.52;78.08;97789.24;1768717;79;24968;-89
2020/12/25 09:17:03;;;;;;;;;;;;;;;5.50;78.06;97793.25;1771794;81;23129;-91
2020/12/25 09:19:49;;;;;;;;;;;;;;;5.51;78.04;97791.49;1768406;80;26175;-88
2020/12/25 09:22:35;;;;;;;;;;;;;;;5.46;78.03;97800.36;1767238;79;24794;-88
2020/12/25 09:25:23;;;;;;;;;;;;;;;5.44;78.01;97803.53;1769847;79;20236;-90
2020/12/25 09:28:09;;;;;;;;;;;;;;;5.44;78.01;97800.94;1771479;80;25816;-89
2020/12/25 09:30:55;;;;;;;;;;;;;;;5.44;78.00;97797.05;1773333;79;22234;-90
2020/12/25 09:33:41;;;;;;;;;;;;;;;5.44;77.98;97801.40;1766830;79;26350;-90
2020/12/25 09:36:28;;;;;;;;;;;;;;;5.43;77.98;97801.86;1767164;80;24556;-90
2020/12/25 09:39:14;;;;;;;;;;;;;;;5.45;77.95;97803.88;1769100;81;20294;-90
2020/12/25 09:42:00;;;;;;;;;;;;;;;5.48;77.92;97806.31;1767524;80;24848;-89
2020/12/25 09:44:54;;;;;;;;;;;;;;;5.51;77.89;97803.17;1766613;79;22254;-89
2020/12/25 09:47:40;;;;;;;;;;;;;;;5.52;77.87;97807.41;1764735;79;26209;-91
2020/12/25 09:50:26;;;;;;;;;;;;;;;5.53;77.86;97803.89;1768785;80;24682;-90
2020/12/25 09:53:12;;;;;;;;;;;;;;;5.53;77.86;97806.48;1769906;79;20315;-89
2020/12/25 09:55:59;;;;;;;;;;;;;;;5.51;77.85;97805.77;1767385;81;24264;-91
2020/12/25 09:58:44;;;;;;;;;;;;;;;5.46;77.84;97810.74;1767431;80;22316;-89
2020/12/25 10:01:32;;;;;;;;;;;;;;;5.32;77.84;97809.89;1769545;80;26355;-91
2020/12/25 10:04:18;;;;;;;;;;;;;;;5.34;77.80;97810.66;1756648;79;24617;-90
2020/12/25 10:07:10;;;;;;;;;;;;;;;5.29;77.79;97804.90;1758536;80;20259;-90
2020/12/25 10:09:58;;;;;;;;;;;;;;;5.19;77.78;97808.93;1759972;80;25276;-91
2020/12/25 10:12:44;;;;;;;;;;;;;;;5.17;77.76;97802.56;1756935;80;22160;-90
2020/12/25 10:15:30;;;;;;;;;;;;;;;5.26;77.72;97807.20;1752754;80;26983;-89
2020/12/25 10:18:16;;;;;;;;;;;;;;;5.28;77.71;97805.82;1756415;80;24590;-90
2020/12/25 10:21:02;;;;;;;;;;;;;;;5.31;77.73;97810.81;1773860;79;20338;-90
2020/12/25 10:23:49;;;;;;;;;;;;;;;5.33;77.75;97809.81;1759419;80;25103;-90
2020/12/25 10:26:35;;;;;;;;;;;;;;;5.28;77.71;97814.44;1761074;80;22104;-91
2020/12/25 10:29:21;;;;;;;;;;;;;;;5.17;77.70;97805.15;1765885;79;26087;-90
2020/12/25 10:32:07;;;;;;;;;;;;;;;5.06;77.69;97816.61;1765216;79;24828;-90
2020/12/25 10:34:53;;;;;;;;;;;;;;;5.01;77.68;97816.03;1759846;81;20276;-89
2020/12/25 10:37:39;;;;;;;;;;;;;;;4.99;77.63;97813.98;1767602;79;24104;-90
2020/12/25 10:40:15;;;;;;;;;;;;;;;4.98;77.61;97818.78;1750858;80;22127;-90
2020/12/25 10:43:01;;;;;;;;;;;;;;;5.01;77.61;97814.28;1761130;79;27085;-90
2020/12/25 10:45:47;;;;;;;;;;;;;;;5.01;77.61;97822.52;1763238;79;24808;-90
2020/12/25 10:48:36;;;;;;;;;;;;;;;5.07;77.62;97821.33;1758434;79;20649;-89
2020/12/25 10:51:22;;;;;;;;;;;;;;;5.12;77.63;97817.55;1761249;80;24917;-90
2020/12/25 10:54:08;;;;;;;;;;;;;;;5.08;77.65;97824.27;1760041;79;22406;-89
2020/12/25 10:56:54;;;;;;;;;;;;;;;5.00;77.67;97823.44;1761436;79;26129;-89
2020/12/25 10:59:42;;;;;;;;;;;;;;;4.94;77.66;97830.27;1767610;79;24710;-91
2020/12/25 11:02:28;;;;;;;;;;;;;;;4.96;77.67;97820.16;1766497;79;20295;-90
2020/12/25 11:05:14;;;;;;;;;;;;;;;4.96;77.67;97821.45;1751649;80;25039;-90
2020/12/25 11:08:01;;;;;;;;;;;;;;;4.96;77.67;97812.87;1757017;80;23088;-90
2020/12/25 11:10:49;;;;;;;;;;;;;;;4.89;77.70;97818.02;1766204;79;26187;-90
2020/12/25 11:13:36;;;;;;;;;;;;;;;4.79;77.72;97816.88;1763027;80;24645;-89
2020/12/25 11:16:23;;;;;;;;;;;;;;;4.64;77.71;97829.76;1753610;80;20410;-90
2020/12/25 11:19:09;;;;;;;;;;;;;;;4.55;77.71;97832.03;1763682;79;24878;-90
2020/12/25 11:21:57;;;;;;;;;;;;;;;4.47;77.69;97827.26;1756268;80;22190;-90
2020/12/25 11:24:43;;;;;;;;;;;;;;;4.45;77.68;97833.46;1757800;80;25988;-90
2020/12/25 11:27:30;;;;;;;;;;;;;;;4.41;77.67;97835.39;1767574;79;24658;-89
2020/12/25 11:30:18;;;;;;;;;;;;;;;4.34;77.70;97833.21;1769804;79;20387;-89
2020/12/25 11:33:10;;;;;;;;;;;;;;;4.26;77.71;97840.09;1764515;80;26009;-89
2020/12/25 11:35:56;;;;;;;;;;;;;;;4.18;77.72;97841.81;1730514;81;22389;-90
2020/12/25 11:38:42;;;;;;;;;;;;;;;4.14;77.74;97844.20;1726387;81;26962;-89
2020/12/25 11:41:28;;;;;;;;;;;;;;;4.06;77.76;97841.17;1726688;81;25486;-89
2020/12/25 11:44:14;;;;;;;;;;;;;;;4.02;77.80;97847.44;1727957;81;20270;-89
2020/12/25 11:47:00;;;;;;;;;;;;;;;4.01;77.79;97848.34;1729648;81;25112;-90
2020/12/25 11:49:46;;;;;;;;;;;;;;;4.01;77.83;97851.39;1729925;83;22164;-90
2020/12/25 11:52:38;;;;;;;;;;;;;;;3.99;77.86;97850.17;1727602;81;26136;-89
2020/12/25 11:55:24;;;;;;;;;;;;;;;4.00;77.89;97848.42;1728914;82;24714;-89
2020/12/25 11:58:12;;;;;;;;;;;;;;;4.05;77.92;97852.89;1726688;83;20256;-89
2020/12/25 12:00:58;;;;;;;;;;;;;;;4.02;77.97;97857.80;1730738;81;24887;-88
2020/12/25 12:03:45;;;;;;;;;;;;;;;3.99;78.01;97860.52;1729209;81;22233;-89
2020/12/25 12:06:31;;;;;;;;;;;;;;;3.99;78.03;97855.80;1726184;81;26251;-89
2020/12/25 12:09:17;;;;;;;;;;;;;;;3.98;78.07;97863.22;1724580;81;25439;-90
2020/12/25 12:12:03;;;;;;;;;;;;;;;4.03;78.08;97856.88;1727945;81;20322;-89
2020/12/25 12:14:50;;;;;;;;;;;;;;;4.05;78.09;97858.91;1724730;83;24995;-89
2020/12/25 12:17:36;;;;;;;;;;;;;;;4.13;78.14;97863.70;1698033;83;22194;-88
2020/12/25 12:20:22;;;;;;;;;;;;;;;4.12;78.16;97860.27;1728162;83;26135;-89
2020/12/25 12:23:08;;;;;;;;;;;;;;;4.19;78.18;97869.84;1723455;81;25642;-88
2020/12/25 12:25:55;;;;;;;;;;;;;;;4.20;78.22;97867.61;1731949;81;20494;-89
2020/12/25 12:28:42;;;;;;;;;;;;;;;4.17;78.25;97879.44;1726255;81;25838;-89
2020/12/25 12:31:29;;;;;;;;;;;;;;;4.11;78.29;97877.17;1729024;81;22123;-89
2020/12/25 12:34:18;;;;;;;;;;;;;;;4.14;78.29;97886.09;1726189;81;26094;-89
2020/12/25 12:37:05;;;;;;;;;;;;;;;4.19;78.32;97887.52;1704713;83;24763;-89
2020/12/25 12:39:51;;;;;;;;;;;;;;;4.21;78.34;97884.83;1702360;82;20620;-88
2020/12/25 12:42:37;;;;;;;;;;;;;;;4.23;78.37;97889.93;1707811;83;25112;-89
2020/12/25 12:45:23;;;;;;;;;;;;;;;4.20;78.40;97889.62;1710756;82;22115;-89
2020/12/25 12:48:09;;;;;;;;;;;;;;;4.21;78.44;97891.30;1704624;83;26101;-88
2020/12/25 12:50:45;;;;;;;;;;;;;;;4.24;78.44;97883.38;1698552;83;24781;-88
2020/12/25 12:53:31;;;;;;;;;;;;;;;4.24;78.47;97889.86;1722551;81;20315;-89
2020/12/25 12:56:17;;;;;;;;;;;;;;;4.20;78.47;97891.75;1696174;83;25081;-89
2020/12/25 12:59:06;;;;;;;;;;;;;;;4.19;78.51;97894.45;1695593;83;22051;-89
2020/12/25 13:01:52;;;;;;;;;;;;;;;4.22;78.51;97886.50;1701247;83;26210;-88
2020/12/25 13:04:39;;;;;;;;;;;;;;;4.28;78.53;97887.92;1692573;82;24865;-88
2020/12/25 13:07:25;;;;;;;;;;;;;;;4.34;78.55;97887.15;1702544;83;20524;-90
2020/12/25 13:10:12;;;;;;;;;;;;;;;4.44;78.55;97892.66;1702637;83;25818;-88
2020/12/25 13:13:00;;;;;;;;;;;;;;;4.48;78.59;97897.59;1697811;83;22159;-90
2020/12/25 13:15:46;;;;;;;;;;;;;;;4.50;78.62;97894.47;1694069;83;26123;-89
2020/12/25 13:18:33;;;;;;;;;;;;;;;4.51;78.63;97901.33;1698799;83;24639;-89
2020/12/25 13:21:19;;;;;;;;;;;;;;;4.51;78.64;97902.63;1701292;83;20523;-89
2020/12/25 13:24:05;;;;;;;;;;;;;;;4.44;78.68;97903.86;1699936;83;25133;-89
2020/12/25 13:26:55;;;;;;;;;;;;;;;4.38;78.67;97900.30;1691544;83;22835;-90
2020/12/25 13:29:44;;;;;;;;;;;;;;;4.33;78.65;97905.35;1695878;83;26351;-89
2020/12/25 13:32:29;;;;;;;;;;;;;;;4.28;78.64;97906.89;1694244;82;24896;-89
2020/12/25 13:35:15;;;;;;;;;;;;;;;4.26;78.61;97906.59;1713362;80;20266;-89
2020/12/25 13:38:03;;;;;;;;;;;;;;;4.27;78.63;97916.03;1740576;81;25122;-89
2020/12/25 13:40:49;;;;;;;;;;;;;;;4.26;78.64;97909.17;1737070;81;22322;-88
2020/12/25 13:43:36;;;;;;;;;;;;;;;4.28;78.63;97912.08;1732801;81;26234;-90
2020/12/25 13:46:22;;;;;;;;;;;;;;;4.25;78.67;97914.84;1735786;81;24625;-90
2020/12/25 13:49:08;;;;;;;;;;;;;;;4.25;78.68;97920.02;1733040;81;20357;-89
2020/12/25 13:51:55;;;;;;;;;;;;;;;4.25;78.70;97922.61;1734292;81;24911;-89
2020/12/25 13:54:41;;;;;;;;;;;;;;;4.25;78.70;97923.91;1737259;81;22370;-89
2020/12/25 13:57:27;;;;;;;;;;;;;;;4.21;78.74;97925.80;1732623;81;26287;-89
2020/12/25 14:00:15;;;;;;;;;;;;;;;4.16;78.74;97921.78;1749479;80;24797;-89
2020/12/25 14:03:00;;;;;;;;;;;;;;;4.12;78.72;97932.77;1733318;81;20395;-90
2020/12/25 14:05:47;;;;;;;;;;;;;;;4.06;78.75;97934.83;1747368;80;24918;-91
2020/12/25 14:08:34;;;;;;;;;;;;;;;3.95;78.77;97943.15;1712840;83;22248;-90
2020/12/25 14:11:27;;;;;;;;;;;;;;;3.83;78.77;97957.16;1750137;80;26169;-90
2020/12/25 14:14:17;;;;;;;;;;;;;;;3.69;78.76;97958.70;1713549;81;24813;-89
2020/12/25 14:17:03;;;;;;;;;;;;;;;3.60;78.75;97958.34;1732235;81;20338;-89
2020/12/25 14:19:49;;;;;;;;;;;;;;;3.60;78.71;97958.34;1740138;81;24915;-89
2020/12/25 14:22:35;;;;;;;;;;;;;;;3.64;78.73;97958.55;1736967;81;22136;-90
2020/12/25 14:25:22;;;;;;;;;;;;;;;3.67;78.72;97955.80;1735531;82;27134;-89
2020/12/25 14:28:08;;;;;;;;;;;;;;;3.69;78.73;97967.77;1734934;81;25565;-89
2020/12/25 14:30:55;;;;;;;;;;;;;;;3.73;78.75;97970.57;1735788;81;20266;-89
2020/12/25 14:33:41;;;;;;;;;;;;;;;3.73;78.80;97970.57;1737095;81;24928;-89
2020/12/25 14:36:27;;;;;;;;;;;;;;;3.70;78.80;97977.66;1737794;81;22173;-90
2020/12/25 14:39:13;;;;;;;;;;;;;;;3.68;78.81;97981.61;1737126;81;27038;-89
2020/12/25 14:41:59;;;;;;;;;;;;;;;3.66;78.84;97980.84;1736741;81;24480;-90